Terminal Aerodrome Forecast
Issued by NWS Cleveland, OH

Home | Current Version | Previous Version | Text Only | Print | Product List | Glossary On
Versions: 1 2 3 4 5 6 7 8 9 10 11 12 13 14 15 16
000
FTUS41 KCLE 182300
TAFCAK
TAF
KCAK 182328Z 1900/1924 04009KT P6SM BKN200
     FM191400 11012G20KT P6SM SCT060 BKN120
     FM191800 11014G22KT P6SM -SHRA BKN060 OVC100
     FM192000 12015G25KT 5SM -SHRA BKN025 OVC050
     FM192300 13016G26KT 3SM -SHRA BR VCTS BKN009 OVC022CB=

USA.gov is the U.S. government's official web portal to all federal, state and local government web resources and services.